Hundvaag 1 weather for Oct 1994
Month no. 88
Obs.
Da.
Temp. Dew Point Precip. Wind
Speed
Wind gusts Cloud cover Press. Humidity Wind dir. Sunny OPT
01.10.1994 7,8   15,7     1       1  
02.10.1994 6,3   1,1     0          
03.10.1994 2,2   0,6     0          
04.10.1994 3,4   2,9     0          
05.10.1994 3,3   4,0     10       1  
06.10.1994 9,7   4,1     0          
07.10.1994 10,4   9,9     0          
08.10.1994 10,7   1,7     0       1  
09.10.1994 9,1   0,3     9       1  
10.10.1994 5,4   0,8     10          
11.10.1994 8,9   0,2     0          
12.10.1994 7,2   2,2     8          
13.10.1994 10,2   2,0     0          
14.10.1994 9,3   2,0     0          
15.10.1994 8,5   5,2     2       1  
16.10.1994 3,9   0,8     10       1  
17.10.1994 2,3   0,0     10          
18.10.1994 0,2   0,0     10          
19.10.1994 4,5   0,0     10          
20.10.1994 5,4   0,0     10          
21.10.1994 7,3   0,0     3          
22.10.1994 8,8   0,9     9       1  
23.10.1994 10,5   0,0     4       1  
24.10.1994 9,9   9,9     0          
25.10.1994 6,3   3,7     5          
26.10.1994 9,9   1,0     1          
27.10.1994 6,8   11,4     0          
28.10.1994 4,8   1,8     3          
29.10.1994 5,8   10,2     9       1  
30.10.1994 5,7   9,9     2       1  
31.10.1994 7,0   2,0     0          
Avrg/Sum 6,8   104,3     4,1       10